createdAt,value
2019-05-18T00:02:02.119Z,13.10
2019-05-18T00:04:30.973Z,13.10
2019-05-18T00:07:00.107Z,13.10
2019-05-18T00:09:28.898Z,13.10
2019-05-18T00:11:58.067Z,13.00
2019-05-18T00:14:27.409Z,13.00
2019-05-18T00:16:56.301Z,13.00
2019-05-18T00:19:25.085Z,12.90
2019-05-18T00:21:54.990Z,12.90
2019-05-18T00:24:24.450Z,12.90
2019-05-18T00:26:54.151Z,12.90
2019-05-18T00:29:23.204Z,12.90
2019-05-18T00:31:52.022Z,12.90
2019-05-18T00:34:21.389Z,12.90
2019-05-18T00:36:50.191Z,12.90
2019-05-18T00:39:18.989Z,13.00
2019-05-18T00:41:48.101Z,13.00
2019-05-18T00:44:17.462Z,13.00
2019-05-18T00:46:46.762Z,13.00
2019-05-18T00:49:16.382Z,13.00
2019-05-18T00:51:45.864Z,12.90
2019-05-18T00:54:15.496Z,12.90
2019-05-18T00:56:44.576Z,12.90
2019-05-18T00:59:16.004Z,12.90
2019-05-18T01:01:44.325Z,12.90
2019-05-18T01:04:13.200Z,12.80
2019-05-18T01:06:41.987Z,12.80
2019-05-18T01:09:10.846Z,12.80
2019-05-18T01:11:40.195Z,12.80
2019-05-18T01:14:09.170Z,12.80
2019-05-18T01:16:38.272Z,12.90
2019-05-18T01:19:07.421Z,12.90
2019-05-18T01:21:36.568Z,12.90
2019-05-18T01:24:06.317Z,12.90
2019-05-18T01:26:35.456Z,12.90
2019-05-18T01:29:05.535Z,12.90
2019-05-18T01:31:35.907Z,12.80
2019-05-18T01:34:05.154Z,12.80
2019-05-18T01:36:34.309Z,12.70
2019-05-18T01:39:04.872Z,12.70
2019-05-18T01:41:34.125Z,12.70
2019-05-18T01:44:02.997Z,12.60
2019-05-18T01:46:32.042Z,12.50
2019-05-18T01:49:00.817Z,12.50
2019-05-18T01:51:29.647Z,12.50
2019-05-18T01:53:58.718Z,12.40
2019-05-18T01:56:27.816Z,12.40
2019-05-18T01:58:56.898Z,12.40
2019-05-18T02:01:25.683Z,12.40
2019-05-18T02:03:54.815Z,12.40
2019-05-18T02:06:23.623Z,12.40
2019-05-18T02:08:52.768Z,12.40
2019-05-18T02:11:21.656Z,12.40
2019-05-18T02:13:51.069Z,12.50
2019-05-18T02:16:20.118Z,12.50
2019-05-18T02:18:49.251Z,12.60
2019-05-18T02:21:18.306Z,12.50
2019-05-18T02:23:47.376Z,12.60
2019-05-18T02:26:16.189Z,12.60
2019-05-18T02:28:45.786Z,12.60
2019-05-18T02:31:15.066Z,12.60
2019-05-18T02:33:44.115Z,12.60
2019-05-18T02:36:13.263Z,12.60
2019-05-18T02:38:42.190Z,12.50
2019-05-18T02:41:11.350Z,12.50
2019-05-18T02:43:40.146Z,12.50
2019-05-18T02:46:09.001Z,12.40
2019-05-18T02:48:48.762Z,12.30
2019-05-18T02:51:11.337Z,12.30
2019-05-18T02:53:39.731Z,12.20
2019-05-18T02:56:08.810Z,12.20
2019-05-18T02:58:37.652Z,12.20
2019-05-18T03:01:06.586Z,12.10
2019-05-18T03:03:36.009Z,12.10
2019-05-18T03:06:04.960Z,12.10
2019-05-18T03:08:34.375Z,12.00
2019-05-18T03:11:03.595Z,12.00
2019-05-18T03:13:32.507Z,12.00
2019-05-18T03:16:01.699Z,12.00
2019-05-18T03:18:30.943Z,12.00
2019-05-18T03:21:00.011Z,11.90
2019-05-18T03:23:29.189Z,11.90
2019-05-18T03:25:58.591Z,11.90
2019-05-18T03:28:27.699Z,11.90
2019-05-18T03:30:57.078Z,11.90
2019-05-18T03:33:29.394Z,11.90
2019-05-18T03:35:56.568Z,11.90
2019-05-18T03:38:25.352Z,11.90
2019-05-18T03:40:54.470Z,11.90
2019-05-18T03:43:23.236Z,11.80
2019-05-18T03:45:52.036Z,11.90
2019-05-18T03:48:20.897Z,11.90
2019-05-18T03:50:50.324Z,11.90
2019-05-18T03:53:19.360Z,11.90
2019-05-18T03:55:48.685Z,11.90
2019-05-18T03:58:17.574Z,11.90
2019-05-18T04:00:46.434Z,11.90
2019-05-18T04:03:15.283Z,11.90
2019-05-18T04:05:44.629Z,12.00
2019-05-18T04:08:13.450Z,12.00
2019-05-18T04:10:42.829Z,12.00
2019-05-18T04:13:11.669Z,12.00
2019-05-18T04:15:41.092Z,12.00
2019-05-18T04:18:10.232Z,12.00
2019-05-18T04:20:39.136Z,12.10
2019-05-18T04:23:08.207Z,12.10
2019-05-18T04:25:37.779Z,12.20
2019-05-18T04:28:06.872Z,12.20
2019-05-18T04:30:35.685Z,12.30
2019-05-18T04:33:05.030Z,12.30
2019-05-18T04:35:33.904Z,12.40
2019-05-18T04:38:02.953Z,12.40
2019-05-18T04:40:32.003Z,12.40
2019-05-18T04:43:01.094Z,12.50
2019-05-18T04:45:30.208Z,12.60
2019-05-18T04:47:59.067Z,12.60
2019-05-18T04:50:28.132Z,12.60
2019-05-18T04:52:57.854Z,12.70
2019-05-18T04:55:27.725Z,12.70
2019-05-18T04:57:56.765Z,12.80
2019-05-18T05:00:25.661Z,12.80
2019-05-18T05:02:55.238Z,12.80
2019-05-18T05:05:24.589Z,12.90
2019-05-18T05:07:53.916Z,12.90
2019-05-18T05:10:23.293Z,13.00
2019-05-18T05:12:52.709Z,13.10
2019-05-18T05:15:21.802Z,13.20
2019-05-18T05:17:50.754Z,13.20
2019-05-18T05:20:20.283Z,13.20
2019-05-18T05:22:49.507Z,13.20
2019-05-18T05:25:18.562Z,13.30
2019-05-18T05:27:47.917Z,13.40
2019-05-18T05:30:17.211Z,13.50
2019-05-18T05:32:46.279Z,13.60
2019-05-18T05:35:15.560Z,13.70
2019-05-18T05:37:44.921Z,13.80
2019-05-18T05:40:13.845Z,13.80
2019-05-18T05:42:42.872Z,13.90
2019-05-18T05:45:12.517Z,13.90
2019-05-18T05:47:41.571Z,13.90
2019-05-18T05:50:11.338Z,14.00
2019-05-18T05:52:40.226Z,14.00
2019-05-18T05:55:09.961Z,14.10
2019-05-18T05:57:39.127Z,14.10
2019-05-18T06:00:09.364Z,14.10
2019-05-18T06:02:38.388Z,14.20
2019-05-18T06:05:09.358Z,14.30
2019-05-18T06:07:38.290Z,14.30
2019-05-18T06:10:07.381Z,14.40
2019-05-18T06:12:37.332Z,14.40
2019-05-18T06:15:06.979Z,14.50
2019-05-18T06:17:36.243Z,14.50
2019-05-18T06:20:05.630Z,14.60
2019-05-18T06:22:34.532Z,14.60
2019-05-18T06:25:05.309Z,14.70
2019-05-18T06:27:34.481Z,14.70
2019-05-18T06:30:03.941Z,14.80
2019-05-18T06:32:32.845Z,14.80
2019-05-18T06:35:01.644Z,14.80
2019-05-18T06:37:30.836Z,14.90
2019-05-18T06:39:59.983Z,14.90
2019-05-18T06:42:29.727Z,15.00
2019-05-18T06:44:58.726Z,15.00
2019-05-18T06:47:28.530Z,15.10
2019-05-18T06:49:57.924Z,15.10
2019-05-18T06:52:27.523Z,15.20
2019-05-18T06:54:57.348Z,15.20
2019-05-18T06:57:27.260Z,15.30
2019-05-18T06:59:56.455Z,15.40
2019-05-18T07:02:26.419Z,15.40
2019-05-18T07:04:56.762Z,15.50
2019-05-18T07:07:25.886Z,15.50
2019-05-18T07:09:54.724Z,15.60
2019-05-18T07:12:24.434Z,15.60
2019-05-18T07:14:53.405Z,15.70
2019-05-18T07:17:22.507Z,15.80
2019-05-18T07:19:51.490Z,15.80
2019-05-18T07:22:20.473Z,15.80
2019-05-18T07:24:49.810Z,15.90
2019-05-18T07:27:19.017Z,16.00
2019-05-18T07:29:47.903Z,16.10
2019-05-18T07:32:16.774Z,16.10
2019-05-18T07:34:51.871Z,16.20
2019-05-18T07:37:21.274Z,16.30
2019-05-18T07:39:50.535Z,16.30
2019-05-18T07:42:19.349Z,16.40
2019-05-18T07:44:48.198Z,16.40
2019-05-18T07:47:17.586Z,16.50
2019-05-18T07:49:46.767Z,16.60
2019-05-18T07:52:17.283Z,16.70
2019-05-18T07:54:46.635Z,16.70
2019-05-18T07:57:16.346Z,16.80
2019-05-18T07:59:45.754Z,16.90
2019-05-18T08:02:15.030Z,16.90
2019-05-18T08:04:43.886Z,17.00
2019-05-18T08:07:12.966Z,17.10
2019-05-18T08:09:41.772Z,17.10
2019-05-18T08:12:11.373Z,17.20
2019-05-18T08:14:40.618Z,17.30
2019-05-18T08:17:10.001Z,17.30
2019-05-18T08:19:38.901Z,17.40
2019-05-18T08:22:08.034Z,17.40
2019-05-18T08:24:36.935Z,17.50
2019-05-18T08:27:05.840Z,17.50
2019-05-18T08:29:34.617Z,17.60
2019-05-18T08:32:03.678Z,17.60
2019-05-18T08:34:33.290Z,17.70
2019-05-18T08:37:02.463Z,17.80
2019-05-18T08:39:31.768Z,17.90
2019-05-18T08:42:00.825Z,17.90
2019-05-18T08:44:29.676Z,18.00
2019-05-18T08:46:58.463Z,18.10
2019-05-18T08:49:27.527Z,18.10
2019-05-18T08:52:07.890Z,18.10
2019-05-18T08:54:28.712Z,18.20
2019-05-18T08:56:58.306Z,18.20
2019-05-18T08:59:27.425Z,18.30
2019-05-18T09:01:56.652Z,18.30
2019-05-18T09:04:25.818Z,18.40
2019-05-18T09:06:55.408Z,18.50
2019-05-18T09:09:24.208Z,18.60
2019-05-18T09:11:53.646Z,18.70
2019-05-18T09:14:22.737Z,18.80
2019-05-18T09:16:51.569Z,18.90
2019-05-18T09:19:21.067Z,18.90
2019-05-18T09:21:50.016Z,19.00
2019-05-18T09:24:19.213Z,19.10
2019-05-18T09:26:48.726Z,19.20
2019-05-18T09:29:17.778Z,19.20
2019-05-18T09:31:46.696Z,19.30
2019-05-18T09:34:17.401Z,19.40
2019-05-18T09:36:46.286Z,19.50
2019-05-18T09:39:15.619Z,19.50
2019-05-18T09:41:44.695Z,19.70
2019-05-18T09:44:13.830Z,19.70
2019-05-18T09:46:42.940Z,19.80
2019-05-18T09:49:11.738Z,19.80
2019-05-18T09:51:41.259Z,19.90
2019-05-18T09:54:10.406Z,19.90
2019-05-18T09:56:39.853Z,20.00
2019-05-18T09:59:09.057Z,20.10
2019-05-18T10:01:37.873Z,20.10
2019-05-18T10:04:07.970Z,20.20
2019-05-18T10:06:37.371Z,20.30
2019-05-18T10:09:08.310Z,20.40
2019-05-18T10:11:38.644Z,20.50
2019-05-18T10:14:08.083Z,20.50
2019-05-18T10:16:37.248Z,20.50
2019-05-18T10:19:06.186Z,20.50
2019-05-18T10:21:35.100Z,20.50
2019-05-18T10:24:04.023Z,20.40
2019-05-18T10:26:33.108Z,20.30
2019-05-18T10:29:02.400Z,20.30
2019-05-18T10:31:31.530Z,20.30
2019-05-18T10:34:00.712Z,20.20
2019-05-18T10:36:29.620Z,20.20
2019-05-18T10:38:58.843Z,20.30
2019-05-18T10:41:28.053Z,20.40
2019-05-18T10:43:57.767Z,20.50
2019-05-18T10:46:27.179Z,20.70
2019-05-18T10:48:56.289Z,20.90
2019-05-18T10:51:26.041Z,20.80
2019-05-18T10:53:55.223Z,20.90
2019-05-18T10:56:24.397Z,21.10
2019-05-18T10:58:53.588Z,21.30
2019-05-18T11:01:22.924Z,21.50
2019-05-18T11:03:52.567Z,21.70
2019-05-18T11:06:21.773Z,21.80
2019-05-18T11:08:51.002Z,21.90
2019-05-18T11:11:20.442Z,22.00
2019-05-18T11:13:49.543Z,22.10
2019-05-18T11:16:19.054Z,22.10
2019-05-18T11:18:48.280Z,22.10
2019-05-18T11:21:17.112Z,22.10
2019-05-18T11:23:48.090Z,22.20
2019-05-18T11:26:16.707Z,22.00
2019-05-18T11:28:46.106Z,21.80
2019-05-18T11:31:15.265Z,21.60
2019-05-18T11:33:44.116Z,21.40
2019-05-18T11:36:13.595Z,21.30
2019-05-18T11:38:42.514Z,21.30
2019-05-18T11:41:11.854Z,21.20
2019-05-18T11:43:40.762Z,21.30
2019-05-18T11:46:10.436Z,21.50
2019-05-18T11:48:39.375Z,21.70
2019-05-18T11:51:09.253Z,22.00
2019-05-18T11:53:38.537Z,22.10
2019-05-18T11:56:07.697Z,22.10
2019-05-18T11:58:36.794Z,22.00
2019-05-18T12:01:05.784Z,21.90
2019-05-18T12:03:34.665Z,21.80
2019-05-18T12:06:03.887Z,21.90
2019-05-18T12:08:33.350Z,21.90
2019-05-18T12:11:04.399Z,21.90
2019-05-18T12:13:33.503Z,22.00
2019-05-18T12:16:02.427Z,22.00
2019-05-18T12:18:31.357Z,22.00
2019-05-18T12:21:00.559Z,21.90
2019-05-18T12:23:29.692Z,21.90
2019-05-18T12:25:58.964Z,21.70
2019-05-18T12:28:27.776Z,21.60
2019-05-18T12:30:56.847Z,21.70
2019-05-18T12:33:26.021Z,21.70
2019-05-18T12:35:54.817Z,21.60
2019-05-18T12:38:23.930Z,21.60
2019-05-18T12:40:53.504Z,21.60
2019-05-18T12:43:22.652Z,21.60
2019-05-18T12:45:51.683Z,21.60
2019-05-18T12:48:20.929Z,21.60
2019-05-18T12:50:50.840Z,21.60
2019-05-18T12:53:19.661Z,21.70
2019-05-18T12:55:48.882Z,21.60
2019-05-18T12:58:18.001Z,21.60
2019-05-18T13:00:46.900Z,21.50
2019-05-18T13:03:16.570Z,21.40
2019-05-18T13:05:45.654Z,21.60
2019-05-18T13:08:14.454Z,21.80
2019-05-18T13:10:44.381Z,22.10
2019-05-18T13:13:13.479Z,22.30
2019-05-18T13:15:42.314Z,22.30
2019-05-18T13:18:11.470Z,22.20
2019-05-18T13:20:40.747Z,22.20
2019-05-18T13:23:09.703Z,22.20
2019-05-18T13:25:38.779Z,22.40
2019-05-18T13:28:10.252Z,22.50
2019-05-18T13:30:39.683Z,22.60
2019-05-18T13:33:08.925Z,22.70
2019-05-18T13:35:38.155Z,22.90
2019-05-18T13:38:07.063Z,22.90
2019-05-18T13:40:36.453Z,23.00
2019-05-18T13:43:05.748Z,23.00
2019-05-18T13:45:34.662Z,23.10
2019-05-18T13:48:03.506Z,23.20
2019-05-18T13:50:32.545Z,23.20
2019-05-18T13:53:01.701Z,23.30
2019-05-18T13:55:30.944Z,23.40
2019-05-18T13:57:59.802Z,23.50
2019-05-18T14:00:29.039Z,23.50
2019-05-18T14:02:58.488Z,23.50
2019-05-18T14:05:27.461Z,23.50
2019-05-18T14:07:57.232Z,23.40
2019-05-18T14:10:26.127Z,23.30
2019-05-18T14:12:55.123Z,23.30
2019-05-18T14:15:25.150Z,23.30
2019-05-18T14:17:54.141Z,23.40
2019-05-18T14:20:26.176Z,23.40
2019-05-18T14:22:54.566Z,23.50
2019-05-18T14:25:23.860Z,23.50
2019-05-18T14:27:52.807Z,23.50
2019-05-18T14:30:22.382Z,23.50
2019-05-18T14:32:51.761Z,23.50
2019-05-18T14:35:21.434Z,23.50
2019-05-18T14:37:50.709Z,23.50
2019-05-18T14:40:20.215Z,23.60
2019-05-18T14:42:49.534Z,23.60
2019-05-18T14:45:18.589Z,23.70
2019-05-18T14:47:47.436Z,23.60
2019-05-18T14:50:17.298Z,23.70
2019-05-18T14:52:46.789Z,23.70
2019-05-18T14:55:17.609Z,23.70
2019-05-18T14:57:47.756Z,23.70
2019-05-18T15:00:18.089Z,23.70
2019-05-18T15:02:47.804Z,23.70
2019-05-18T15:05:16.976Z,23.70
2019-05-18T15:07:46.192Z,23.70
2019-05-18T15:10:16.016Z,23.70
2019-05-18T15:12:45.100Z,23.70
2019-05-18T15:15:15.420Z,23.70
2019-05-18T15:17:44.509Z,23.70
2019-05-18T15:20:13.998Z,23.70
2019-05-18T15:22:42.827Z,23.80
2019-05-18T15:25:12.295Z,23.80
2019-05-18T15:27:41.568Z,23.80
2019-05-18T15:30:11.953Z,23.80
2019-05-18T15:32:41.369Z,23.70
2019-05-18T15:35:11.002Z,23.80
2019-05-18T15:37:42.932Z,23.80
2019-05-18T15:40:13.306Z,23.80
2019-05-18T15:42:42.644Z,23.70
2019-05-18T15:45:12.368Z,23.70
2019-05-18T15:47:41.344Z,23.70
2019-05-18T15:50:11.437Z,23.70
2019-05-18T15:52:40.804Z,23.60
2019-05-18T15:55:10.159Z,23.50
2019-05-18T15:57:39.305Z,23.40
2019-05-18T16:00:10.464Z,23.20
2019-05-18T16:02:39.708Z,23.10
2019-05-18T16:05:09.095Z,23.10
2019-05-18T16:07:38.227Z,23.20
2019-05-18T16:10:08.419Z,23.10
2019-05-18T16:12:37.768Z,23.10
2019-05-18T16:15:07.904Z,23.10
2019-05-18T16:17:39.610Z,23.10
2019-05-18T16:20:07.875Z,23.00
2019-05-18T16:22:36.867Z,23.00
2019-05-18T16:25:06.226Z,23.00
2019-05-18T16:27:35.241Z,22.90
2019-05-18T16:30:04.579Z,22.80
2019-05-18T16:32:33.725Z,22.70
2019-05-18T16:35:03.038Z,22.60
2019-05-18T16:37:32.405Z,22.60
2019-05-18T16:40:01.705Z,22.70
2019-05-18T16:42:30.858Z,22.70
2019-05-18T16:45:00.246Z,22.70
2019-05-18T16:47:29.416Z,22.80
2019-05-18T16:49:58.562Z,22.70
2019-05-18T16:52:27.639Z,22.70
2019-05-18T16:54:56.817Z,22.60
2019-05-18T16:57:25.801Z,22.70
2019-05-18T16:59:55.071Z,22.60
2019-05-18T17:02:31.624Z,22.60
2019-05-18T17:04:54.995Z,22.60
2019-05-18T17:07:24.663Z,22.60
2019-05-18T17:09:54.247Z,22.50
2019-05-18T17:12:23.175Z,22.50
2019-05-18T17:14:52.160Z,22.50
2019-05-18T17:17:21.335Z,22.40
2019-05-18T17:19:50.390Z,22.40
2019-05-18T17:22:19.556Z,22.40
2019-05-18T17:24:48.617Z,22.30
2019-05-18T17:27:18.161Z,22.20
2019-05-18T17:29:47.513Z,22.20
2019-05-18T17:32:17.278Z,22.10
2019-05-18T17:34:46.438Z,22.10
2019-05-18T17:37:15.893Z,22.10
2019-05-18T17:39:45.279Z,22.10
2019-05-18T17:42:14.388Z,22.10
2019-05-18T17:44:43.451Z,22.10
2019-05-18T17:47:12.395Z,22.10
2019-05-18T17:49:41.655Z,22.20
2019-05-18T17:52:11.099Z,22.20
2019-05-18T17:54:40.286Z,22.20
2019-05-18T17:57:09.638Z,22.10
2019-05-18T17:59:38.529Z,22.10
2019-05-18T18:02:07.778Z,22.10
2019-05-18T18:04:37.183Z,22.10
2019-05-18T18:07:06.465Z,22.00
2019-05-18T18:09:35.316Z,21.90
2019-05-18T18:12:05.191Z,21.80
2019-05-18T18:14:33.982Z,21.80
2019-05-18T18:17:03.222Z,21.60
2019-05-18T18:19:32.089Z,21.60
2019-05-18T18:22:01.252Z,21.50
2019-05-18T18:24:30.755Z,21.40
2019-05-18T18:26:59.744Z,21.40
2019-05-18T18:29:29.150Z,21.30
2019-05-18T18:31:58.262Z,21.20
2019-05-18T18:34:27.626Z,21.10
2019-05-18T18:36:56.447Z,21.00
2019-05-18T18:39:25.373Z,20.90
2019-05-18T18:41:54.895Z,20.90
2019-05-18T18:44:23.765Z,20.80
2019-05-18T18:46:53.197Z,20.70
2019-05-18T18:49:22.018Z,20.60
2019-05-18T18:51:50.976Z,20.60
2019-05-18T18:54:20.357Z,20.50
2019-05-18T18:56:49.197Z,20.50
2019-05-18T18:59:18.586Z,20.40
2019-05-18T19:01:47.388Z,20.40
2019-05-18T19:04:16.739Z,20.40
2019-05-18T19:06:45.507Z,20.30
2019-05-18T19:09:15.099Z,20.30
2019-05-18T19:11:44.068Z,20.20
2019-05-18T19:14:13.388Z,20.20
2019-05-18T19:16:42.483Z,20.10
2019-05-18T19:19:11.560Z,20.00
2019-05-18T19:21:40.498Z,20.00
2019-05-18T19:24:09.565Z,19.90
2019-05-18T19:26:38.745Z,19.90
2019-05-18T19:29:07.915Z,19.80
2019-05-18T19:31:36.742Z,19.80
2019-05-18T19:34:05.827Z,19.80
2019-05-18T19:36:35.157Z,19.70
2019-05-18T19:39:06.056Z,19.70
2019-05-18T19:41:34.864Z,19.70
2019-05-18T19:44:03.868Z,19.70
2019-05-18T19:46:33.073Z,19.60
2019-05-18T19:49:02.274Z,19.60
2019-05-18T19:51:31.154Z,19.50
2019-05-18T19:54:00.195Z,19.40
2019-05-18T19:56:29.057Z,19.40
2019-05-18T19:58:57.887Z,19.30
2019-05-18T20:01:27.019Z,19.30
2019-05-18T20:03:55.851Z,19.20
2019-05-18T20:06:25.480Z,19.10
2019-05-18T20:08:54.904Z,19.10
2019-05-18T20:11:23.870Z,19.00
2019-05-18T20:13:53.407Z,19.00
2019-05-18T20:16:23.036Z,19.00
2019-05-18T20:18:52.663Z,18.90
2019-05-18T20:21:21.641Z,18.90
2019-05-18T20:23:52.300Z,18.80
2019-05-18T20:26:21.146Z,18.80
2019-05-18T20:28:50.293Z,18.70
2019-05-18T20:31:19.885Z,18.70
2019-05-18T20:33:48.891Z,18.50
2019-05-18T20:36:18.079Z,18.50
2019-05-18T20:38:46.938Z,18.40
2019-05-18T20:41:16.107Z,18.40
2019-05-18T20:43:45.455Z,18.30
2019-05-18T20:46:14.818Z,18.20
2019-05-18T20:48:43.815Z,18.10
2019-05-18T20:51:12.968Z,18.10
2019-05-18T20:53:42.040Z,18.00
2019-05-18T20:56:11.148Z,17.90
2019-05-18T20:58:40.889Z,17.90
2019-05-18T21:01:10.283Z,17.80
2019-05-18T21:03:39.458Z,17.80
2019-05-18T21:06:08.745Z,17.70
2019-05-18T21:08:38.024Z,17.70
2019-05-18T21:11:07.545Z,17.60
2019-05-18T21:13:36.986Z,17.60
2019-05-18T21:16:05.975Z,17.50
2019-05-18T21:18:35.058Z,17.50
2019-05-18T21:21:04.446Z,17.40
2019-05-18T21:23:33.655Z,17.40
2019-05-18T21:26:02.476Z,17.40
2019-05-18T21:28:31.307Z,17.40
2019-05-18T21:31:00.948Z,17.30
2019-05-18T21:33:30.291Z,17.20
2019-05-18T21:36:00.105Z,17.30
2019-05-18T21:38:29.771Z,17.20
2019-05-18T21:40:58.856Z,17.20
2019-05-18T21:43:27.671Z,17.10
2019-05-18T21:45:57.061Z,17.10
2019-05-18T21:48:26.344Z,17.10
2019-05-18T21:50:55.971Z,17.00
2019-05-18T21:53:24.796Z,17.00
2019-05-18T21:55:53.926Z,17.00
2019-05-18T21:58:23.065Z,16.90
2019-05-18T22:00:52.722Z,16.90
2019-05-18T22:03:21.831Z,16.80
2019-05-18T22:05:50.967Z,16.80
2019-05-18T22:08:19.893Z,16.80
2019-05-18T22:10:49.222Z,16.70
2019-05-18T22:13:18.401Z,16.70
2019-05-18T22:15:47.466Z,16.70
2019-05-18T22:18:24.085Z,16.60
2019-05-18T22:20:46.799Z,16.60
2019-05-18T22:23:16.569Z,16.60
2019-05-18T22:25:45.894Z,16.50
2019-05-18T22:28:15.431Z,16.50
2019-05-18T22:30:45.127Z,16.50
2019-05-18T22:33:14.296Z,16.40
2019-05-18T22:35:43.322Z,16.40
2019-05-18T22:38:12.420Z,16.40
2019-05-18T22:40:42.201Z,16.30
2019-05-18T22:43:11.118Z,16.30
2019-05-18T22:45:40.578Z,16.30
2019-05-18T22:48:09.950Z,16.20
2019-05-18T22:50:39.364Z,16.20
2019-05-18T22:53:08.298Z,16.20
2019-05-18T22:55:37.417Z,16.20
2019-05-18T22:58:06.996Z,16.20
2019-05-18T23:00:36.289Z,16.20
2019-05-18T23:03:05.524Z,16.10
2019-05-18T23:05:34.989Z,16.10
2019-05-18T23:08:03.965Z,16.10
2019-05-18T23:10:32.840Z,16.00
2019-05-18T23:13:01.974Z,16.00
2019-05-18T23:15:30.860Z,16.00
2019-05-18T23:18:00.140Z,16.00
2019-05-18T23:20:29.364Z,16.00
2019-05-18T23:22:59.143Z,16.00
2019-05-18T23:25:28.017Z,15.90
2019-05-18T23:27:56.912Z,15.90
2019-05-18T23:30:26.674Z,15.90
2019-05-18T23:32:55.576Z,15.80
2019-05-18T23:35:24.773Z,15.80
2019-05-18T23:37:53.951Z,15.70
2019-05-18T23:40:23.056Z,15.80
2019-05-18T23:42:52.049Z,15.70
2019-05-18T23:45:21.496Z,15.70
2019-05-18T23:47:51.015Z,15.70
2019-05-18T23:50:20.052Z,15.60
2019-05-18T23:52:49.808Z,15.60
2019-05-18T23:55:19.365Z,15.60
2019-05-18T23:57:49.163Z,15.50
